Time;durP1;ratioP1;P1;durP2;ratioP2;P2;SDS_P1;SDS_P2;PMS_P1;PMS_P2;Temp;Humidity;BMP_temperature;BMP_pressure;BME280_temperature;BME280_humidity;BME280_pressure;Samples;Min_cycle;Max_cycle;Signal;HPM_P1;HPM_P2
2024/01/07 00:01:32;;;;;;;8.90;5.57;;;0.30;99.90;;;;;;5072806;28;20044;-70
2024/01/07 00:03:57;;;;;;;9.65;5.68;;;0.30;99.90;;;;;;5072376;28;21378;-69
2024/01/07 00:06:23;;;;;;;9.23;5.63;;;0.40;99.90;;;;;;5070009;28;20448;-69
2024/01/07 00:08:52;;;;;;;10.13;6.10;;;0.40;99.90;;;;;;5071347;28;20457;-71
2024/01/07 00:11:17;;;;;;;10.15;5.80;;;0.40;99.90;;;;;;5081646;28;20036;-71
2024/01/07 00:13:43;;;;;;;11.45;5.60;;;0.40;99.90;;;;;;5069738;28;20113;-71
2024/01/07 00:16:08;;;;;;;10.07;6.30;;;0.40;99.90;;;;;;5071318;28;20167;-70
2024/01/07 00:18:34;;;;;;;8.13;5.15;;;0.60;99.90;;;;;;5071750;28;20257;-69
2024/01/07 00:21:00;;;;;;;9.93;5.30;;;0.40;99.90;;;;;;5069729;28;20143;-70
2024/01/07 00:23:28;;;;;;;8.32;5.18;;;0.50;99.90;;;;;;5072073;28;20070;-69
2024/01/07 00:25:54;;;;;;;9.05;5.35;;;0.50;99.90;;;;;;5072331;28;20388;-70
2024/01/07 00:28:20;;;;;;;9.57;5.30;;;0.50;99.90;;;;;;5070139;28;20142;-70
2024/01/07 00:30:46;;;;;;;8.75;5.10;;;0.50;99.90;;;;;;5071058;28;20078;-69
2024/01/07 00:33:11;;;;;;;8.65;5.03;;;0.50;99.90;;;;;;5071491;28;20044;-69
2024/01/07 00:35:37;;;;;;;10.23;5.68;;;0.50;99.90;;;;;;5070753;28;20048;-69
2024/01/07 00:38:02;;;;;;;8.23;5.47;;;0.50;99.90;;;;;;5070585;28;20083;-70
2024/01/07 00:40:28;;;;;;;;;;;0.50;99.90;;;;;;5070931;28;20040;-69
2024/01/07 00:42:54;;;;;;;10.50;5.30;;;0.50;99.90;;;;;;5071952;28;19920;-69
2024/01/07 00:45:19;;;;;;;8.57;4.90;;;0.50;99.90;;;;;;5072131;28;20045;-68
2024/01/07 00:47:45;;;;;;;10.70;5.80;;;0.50;99.90;;;;;;5069842;28;20052;-69
2024/01/07 00:50:10;;;;;;;;;;;0.50;99.90;;;;;;5070892;28;20052;-69
2024/01/07 00:52:37;;;;;;;9.50;5.38;;;0.50;99.90;;;;;;5071930;28;19943;-69
2024/01/07 00:55:04;;;;;;;8.18;5.10;;;0.50;99.90;;;;;;5071285;28;20074;-68
2024/01/07 00:57:30;;;;;;;9.13;5.95;;;0.50;99.90;;;;;;5072198;28;20063;-68
2024/01/07 00:59:56;;;;;;;13.32;5.55;;;0.50;99.90;;;;;;5071638;28;20482;-67
2024/01/07 01:02:21;;;;;;;8.23;5.03;;;0.50;99.90;;;;;;5070208;28;20120;-69
2024/01/07 01:04:47;;;;;;;9.95;5.63;;;0.60;99.90;;;;;;5071979;28;20394;-69
2024/01/07 01:07:13;;;;;;;8.57;5.20;;;0.50;99.90;;;;;;5071118;28;20036;-68
2024/01/07 01:09:39;;;;;;;11.00;5.75;;;0.50;99.90;;;;;;5070872;28;20040;-68
2024/01/07 01:12:05;;;;;;;7.85;4.70;;;0.50;99.90;;;;;;5071470;28;20055;-70
2024/01/07 01:14:30;;;;;;;10.82;5.30;;;0.50;99.90;;;;;;5071990;28;20072;-69
2024/01/07 01:16:56;;;;;;;9.07;5.07;;;0.50;99.90;;;;;;5070803;28;20048;-69
2024/01/07 01:19:21;;;;;;;12.65;5.15;;;0.50;99.90;;;;;;5071738;28;20090;-70
2024/01/07 01:21:50;;;;;;;7.82;4.60;;;0.40;99.90;;;;;;5070632;28;20050;-69
2024/01/07 01:24:16;;;;;;;9.18;4.97;;;0.50;99.90;;;;;;5069660;28;20045;-69
2024/01/07 01:26:41;;;;;;;9.07;4.60;;;0.40;99.90;;;;;;5072258;28;20037;-69
2024/01/07 01:29:07;;;;;;;8.95;5.05;;;0.40;99.90;;;;;;5071852;28;20453;-69
2024/01/07 01:31:33;;;;;;;;;;;0.30;99.90;;;;;;5070223;28;20047;-69
2024/01/07 01:33:58;;;;;;;9.85;4.88;;;0.40;99.90;;;;;;5071104;28;20279;-69
2024/01/07 01:36:24;;;;;;;8.50;4.40;;;0.40;99.90;;;;;;5070707;28;20056;-69
2024/01/07 01:38:49;;;;;;;9.00;5.00;;;0.40;99.90;;;;;;5071218;28;20471;-69
2024/01/07 01:41:16;;;;;;;9.05;5.25;;;0.40;99.90;;;;;;5071903;28;20053;-68
2024/01/07 01:43:42;;;;;;;7.68;4.68;;;0.30;99.90;;;;;;5070144;28;20052;-68
2024/01/07 01:46:08;;;;;;;10.27;5.10;;;0.30;99.90;;;;;;5068807;28;20041;-69
2024/01/07 01:48:35;;;;;;;9.85;5.65;;;0.30;99.90;;;;;;5068670;28;20040;-69
2024/01/07 01:51:02;;;;;;;11.50;5.90;;;0.30;99.90;;;;;;5069094;28;20040;-69
2024/01/07 01:53:28;;;;;;;10.27;5.63;;;0.30;99.90;;;;;;5072236;28;20059;-69
2024/01/07 01:55:57;;;;;;;12.40;5.35;;;0.30;99.90;;;;;;5072294;28;20541;-69
2024/01/07 01:58:26;;;;;;;8.68;5.28;;;0.20;99.90;;;;;;5073012;28;20045;-70
2024/01/07 02:00:52;;;;;;;9.82;5.20;;;0.30;99.90;;;;;;5075667;28;20044;-69
2024/01/07 02:03:18;;;;;;;11.30;5.45;;;0.30;99.90;;;;;;5073654;28;20044;-69
2024/01/07 02:05:44;;;;;;;12.25;5.93;;;0.30;99.90;;;;;;5073489;28;20110;-69
2024/01/07 02:08:10;;;;;;;11.68;5.70;;;0.30;99.90;;;;;;5073770;28;20048;-69
2024/01/07 02:10:36;;;;;;;11.10;5.25;;;0.20;99.90;;;;;;5074235;28;20060;-69
2024/01/07 02:13:03;;;;;;;9.45;5.78;;;0.20;99.90;;;;;;5074404;28;20064;-69
2024/01/07 02:15:29;;;;;;;9.88;4.60;;;0.30;99.90;;;;;;5072781;28;20541;-69
2024/01/07 02:17:55;;;;;;;9.05;5.03;;;0.20;99.90;;;;;;5073955;28;20051;-69
2024/01/07 02:20:21;;;;;;;9.35;4.15;;;0.20;99.90;;;;;;5074000;28;20044;-68
2024/01/07 02:22:47;;;;;;;10.80;4.80;;;0.20;99.90;;;;;;5073976;28;20055;-69
2024/01/07 02:25:12;;;;;;;7.13;4.57;;;0.10;99.90;;;;;;5074697;28;20048;-69
2024/01/07 02:27:38;;;;;;;8.70;4.28;;;0.10;99.90;;;;;;5074216;28;20029;-70
2024/01/07 02:30:04;;;;;;;8.52;4.10;;;0.10;99.90;;;;;;5073962;28;20492;-69
2024/01/07 02:32:34;;;;;;;8.73;4.57;;;0.10;99.90;;;;;;5074094;28;20052;-69
2024/01/07 02:35:00;;;;;;;9.90;4.38;;;0.10;99.90;;;;;;5072391;28;20131;-69
2024/01/07 02:37:25;;;;;;;7.70;4.30;;;0.10;99.90;;;;;;5073408;28;20178;-69
2024/01/07 02:39:51;;;;;;;8.77;4.90;;;0.10;99.90;;;;;;5075182;28;20040;-69
2024/01/07 02:42:16;;;;;;;7.90;4.82;;;0.10;99.90;;;;;;5074296;28;20040;-69
2024/01/07 02:44:42;;;;;;;10.38;4.55;;;0.00;99.90;;;;;;5073230;28;20048;-69
2024/01/07 02:47:08;;;;;;;10.35;4.47;;;0.00;99.90;;;;;;5072992;28;20132;-69
2024/01/07 02:49:33;;;;;;;8.35;4.47;;;0.00;99.90;;;;;;5073411;28;20059;-69
2024/01/07 02:51:59;;;;;;;9.77;4.85;;;0.00;99.90;;;;;;5074716;28;20040;-70
2024/01/07 02:54:27;;;;;;;8.68;4.95;;;0.00;99.90;;;;;;5072150;28;20098;-69
2024/01/07 02:56:53;;;;;;;8.02;4.40;;;-0.10;99.90;;;;;;5072968;28;20037;-69
2024/01/07 02:59:19;;;;;;;8.43;4.22;;;-0.10;99.90;;;;;;5073282;28;20074;-69
2024/01/07 03:01:45;;;;;;;8.27;4.22;;;-0.10;99.90;;;;;;5072265;28;20089;-69
2024/01/07 03:04:13;;;;;;;7.90;4.18;;;-0.10;99.90;;;;;;5073681;28;20048;-69
2024/01/07 03:06:39;;;;;;;7.43;4.35;;;-0.10;99.90;;;;;;5074033;28;20083;-69
2024/01/07 03:09:07;;;;;;;7.47;4.28;;;-0.10;99.90;;;;;;5072139;28;20499;-69
2024/01/07 03:11:33;;;;;;;7.88;3.95;;;-0.10;99.90;;;;;;5073327;28;20391;-69
2024/01/07 03:13:59;;;;;;;6.82;3.88;;;-0.10;99.90;;;;;;5072214;28;20135;-69
2024/01/07 03:16:26;;;;;;;8.85;4.60;;;-0.20;99.90;;;;;;5071652;28;20135;-69
2024/01/07 03:18:52;;;;;;;7.00;4.38;;;-0.20;99.90;;;;;;5074247;28;20078;-69
2024/01/07 03:21:23;;;;;;;7.10;3.55;;;-0.20;99.90;;;;;;5073478;28;20071;-69
2024/01/07 03:23:50;;;;;;;5.32;3.40;;;-0.10;99.90;;;;;;5071927;28;20082;-70
2024/01/07 03:26:17;;;;;;;5.95;2.95;;;-0.10;99.90;;;;;;5072091;28;20122;-69
2024/01/07 03:28:43;;;;;;;7.35;3.67;;;0.00;99.90;;;;;;5073868;28;20086;-69
2024/01/07 03:31:12;;;;;;;6.82;3.53;;;0.00;99.90;;;;;;5071847;28;20060;-69
2024/01/07 03:33:38;;;;;;;6.13;3.45;;;0.10;99.90;;;;;;5072291;28;20047;-69
2024/01/07 03:36:12;;;;;;;4.65;2.75;;;0.10;99.90;;;;;;5073103;28;20052;-69
2024/01/07 03:38:39;;;;;;;6.80;3.45;;;0.20;99.90;;;;;;5071204;28;20373;-69
2024/01/07 03:41:05;;;;;;;10.55;3.65;;;0.10;99.90;;;;;;5072091;28;20080;-69
2024/01/07 03:43:30;;;;;;;6.90;3.50;;;0.10;99.90;;;;;;5071335;28;20079;-69
2024/01/07 03:45:56;;;;;;;7.85;3.28;;;0.10;99.90;;;;;;5073622;28;20041;-69
2024/01/07 03:48:22;;;;;;;5.20;2.65;;;0.20;99.90;;;;;;5073077;28;20155;-69
2024/01/07 03:50:47;;;;;;;5.63;2.95;;;0.20;99.90;;;;;;5071669;28;20059;-69
2024/01/07 03:53:14;;;;;;;5.22;2.85;;;0.30;99.90;;;;;;5073091;28;20095;-69
2024/01/07 03:55:39;;;;;;;6.03;3.08;;;0.30;99.90;;;;;;5072127;28;20044;-69
2024/01/07 03:58:05;;;;;;;5.38;2.97;;;0.30;99.90;;;;;;5071313;28;20048;-69
2024/01/07 04:00:34;;;;;;;5.93;3.08;;;0.30;99.90;;;;;;5073344;28;20040;-69
2024/01/07 04:03:01;;;;;;;6.57;3.00;;;0.30;99.90;;;;;;5071565;28;20051;-69
2024/01/07 04:05:26;;;;;;;4.78;2.72;;;0.30;99.90;;;;;;5071767;28;20648;-70
2024/01/07 04:07:52;;;;;;;5.55;2.80;;;0.30;99.90;;;;;;5073162;28;20146;-69
2024/01/07 04:10:18;;;;;;;5.35;3.00;;;0.30;99.90;;;;;;5073005;28;20456;-69
2024/01/07 04:12:44;;;;;;;7.07;2.58;;;0.40;99.90;;;;;;5071337;28;20044;-69
2024/01/07 04:15:12;;;;;;;6.10;2.65;;;0.40;99.90;;;;;;5070517;28;20045;-69
2024/01/07 04:17:38;;;;;;;4.13;2.80;;;0.30;99.90;;;;;;5071500;28;20040;-70
2024/01/07 04:20:05;;;;;;;6.82;2.83;;;0.30;99.90;;;;;;5072057;28;20048;-69
2024/01/07 04:22:30;;;;;;;6.18;2.70;;;0.40;99.90;;;;;;5073018;28;20044;-69
2024/01/07 04:24:56;;;;;;;5.20;2.50;;;0.40;99.90;;;;;;5072555;28;20402;-69
2024/01/07 04:27:22;;;;;;;6.00;2.63;;;0.40;99.90;;;;;;5070227;28;20040;-69
2024/01/07 04:29:47;;;;;;;5.15;2.65;;;0.30;99.90;;;;;;5071730;28;20051;-69
2024/01/07 04:32:13;;;;;;;;;;;0.30;99.90;;;;;;5071447;28;20048;-69
2024/01/07 04:34:38;;;;;;;4.90;2.47;;;0.30;99.90;;;;;;5071668;28;19924;-70
2024/01/07 04:37:04;;;;;;;5.30;3.03;;;0.30;99.90;;;;;;5072118;28;20384;-69
2024/01/07 04:39:29;;;;;;;5.80;2.63;;;0.30;99.90;;;;;;5072770;28;20048;-69
2024/01/07 04:41:55;;;;;;;4.50;2.38;;;0.30;99.90;;;;;;5071678;28;20047;-69
2024/01/07 04:44:21;;;;;;;4.68;2.60;;;-0.40;99.90;;;;;;5071342;28;20140;-69
2024/01/07 04:46:48;;;;;;;5.22;2.33;;;0.30;99.90;;;;;;5071420;28;20047;-69
2024/01/07 04:49:14;;;;;;;7.10;2.78;;;0.20;99.90;;;;;;5070722;28;20052;-69
2024/01/07 04:51:40;;;;;;;4.28;2.30;;;0.20;99.90;;;;;;5071352;28;20063;-69
2024/01/07 04:54:08;;;;;;;7.80;2.55;;;0.30;99.90;;;;;;5070122;28;20079;-69
2024/01/07 04:56:33;;;;;;;4.85;2.75;;;0.30;99.90;;;;;;5071111;28;20056;-69
2024/01/07 04:58:59;;;;;;;4.80;2.28;;;0.30;99.90;;;;;;5071026;28;20037;-69
2024/01/07 05:01:25;;;;;;;6.50;2.42;;;0.30;99.90;;;;;;5071897;28;20075;-69
2024/01/07 05:03:51;;;;;;;6.50;2.53;;;0.30;99.90;;;;;;5072428;28;20082;-69
2024/01/07 05:06:17;;;;;;;6.45;2.33;;;0.30;99.90;;;;;;5071139;28;20044;-69
2024/01/07 05:08:43;;;;;;;4.45;2.50;;;0.30;99.90;;;;;;5071337;28;20105;-69
2024/01/07 05:11:09;;;;;;;5.90;2.20;;;0.30;99.90;;;;;;5071052;28;20110;-69
2024/01/07 05:13:35;;;;;;;6.40;2.30;;;0.30;99.90;;;;;;5071741;28;20051;-69
2024/01/07 05:16:01;;;;;;;4.93;2.25;;;0.30;99.90;;;;;;5070497;28;20380;-69
2024/01/07 05:18:27;;;;;;;6.60;2.33;;;-0.50;99.90;;;;;;5071478;28;20153;-69
2024/01/07 05:20:52;;;;;;;6.28;2.22;;;0.30;99.90;;;;;;5072318;28;20149;-69
2024/01/07 05:23:18;;;;;;;4.40;2.10;;;0.30;99.90;;;;;;5070950;28;20881;-69
2024/01/07 05:25:44;;;;;;;;;;;0.20;99.90;;;;;;5073422;28;20128;-69
2024/01/07 05:28:13;;;;;;;5.60;2.00;;;1.10;99.90;;;;;;5074387;28;19920;-69
2024/01/07 05:30:39;;;;;;;3.88;1.98;;;0.20;99.90;;;;;;5074465;28;20340;-69
2024/01/07 05:33:05;;;;;;;5.40;1.90;;;0.30;99.90;;;;;;5074764;28;20082;-70
2024/01/07 05:35:31;;;;;;;5.57;2.35;;;0.20;99.90;;;;;;5074617;28;20083;-69
2024/01/07 05:37:57;;;;;;;4.28;2.00;;;0.20;99.90;;;;;;5073677;28;20076;-69
2024/01/07 05:40:23;;;;;;;4.35;1.90;;;0.30;99.90;;;;;;5055563;28;20131;-69
2024/01/07 05:42:48;;;;;;;4.85;2.08;;;0.30;99.90;;;;;;5056027;28;20041;-69
2024/01/07 05:45:14;;;;;;;3.97;2.40;;;0.20;99.90;;;;;;5069741;28;20041;-69
2024/01/07 05:47:40;;;;;;;4.78;1.80;;;0.30;99.90;;;;;;5075454;28;20177;-69
2024/01/07 05:50:07;;;;;;;4.60;2.08;;;0.30;99.90;;;;;;5073028;28;20093;-69
2024/01/07 05:52:33;;;;;;;4.35;2.13;;;0.30;99.90;;;;;;5074292;28;20048;-69
2024/01/07 05:54:58;;;;;;;3.47;1.80;;;0.30;99.90;;;;;;5074010;28;20407;-69
2024/01/07 05:57:24;;;;;;;6.00;1.88;;;0.30;99.90;;;;;;5074654;28;20047;-69
2024/01/07 05:59:50;;;;;;;5.22;2.00;;;0.30;99.90;;;;;;5075465;28;20048;-69
2024/01/07 06:02:17;;;;;;;4.05;1.90;;;0.30;99.90;;;;;;5075641;28;20047;-69
2024/01/07 06:04:43;;;;;;;4.75;2.17;;;0.30;99.90;;;;;;5073094;28;20098;-69
2024/01/07 06:07:08;;;;;;;4.65;2.25;;;0.30;99.90;;;;;;5073719;28;20182;-69
2024/01/07 06:09:34;;;;;;;5.50;2.15;;;0.40;99.90;;;;;;5075305;28;20068;-69
2024/01/07 06:12:00;;;;;;;6.60;2.28;;;0.30;99.90;;;;;;5073547;28;20086;-70
2024/01/07 06:14:26;;;;;;;5.97;1.80;;;0.40;99.90;;;;;;5075238;28;20048;-69
2024/01/07 06:16:52;;;;;;;3.15;1.75;;;0.40;99.90;;;;;;5075275;28;20082;-69
2024/01/07 06:19:18;;;;;;;3.80;1.90;;;0.40;99.90;;;;;;5074446;28;20093;-69
2024/01/07 06:21:43;;;;;;;5.68;2.00;;;0.40;99.90;;;;;;5075371;28;20040;-69
2024/01/07 06:24:09;;;;;;;3.00;1.60;;;0.40;99.90;;;;;;5073456;28;20048;-69
2024/01/07 06:26:35;;;;;;;;;;;0.60;99.90;;;;;;5073005;28;20506;-69
2024/01/07 06:29:01;;;;;;;5.40;2.00;;;0.40;99.90;;;;;;5074990;28;19966;-69
2024/01/07 06:31:26;;;;;;;3.50;1.75;;;0.40;99.90;;;;;;5075187;28;20123;-68
2024/01/07 06:33:52;;;;;;;3.38;1.60;;;0.30;99.90;;;;;;5073260;28;20040;-69
2024/01/07 06:36:18;;;;;;;4.53;1.63;;;1.50;99.90;;;;;;5072881;28;20048;-69
2024/01/07 06:38:43;;;;;;;3.63;1.80;;;0.40;99.90;;;;;;5071918;28;20052;-69
2024/01/07 06:41:12;;;;;;;4.63;1.90;;;0.40;99.90;;;;;;5072933;28;20049;-68
2024/01/07 06:43:38;;;;;;;5.05;2.15;;;0.40;99.90;;;;;;5073689;28;20075;-69
2024/01/07 06:46:04;;;;;;;3.60;1.70;;;0.40;99.90;;;;;;5072584;28;20082;-69
2024/01/07 06:48:30;;;;;;;4.03;1.67;;;0.40;99.90;;;;;;5072750;28;20084;-69
2024/01/07 06:50:56;;;;;;;5.95;2.05;;;0.40;99.90;;;;;;5074742;28;20593;-68
2024/01/07 06:53:22;;;;;;;4.82;1.75;;;0.40;99.90;;;;;;5073434;28;20155;-69
2024/01/07 06:55:48;;;;;;;2.60;1.30;;;0.40;99.90;;;;;;5074790;28;20123;-69
2024/01/07 06:58:13;;;;;;;4.55;1.92;;;0.40;99.90;;;;;;5072190;28;20387;-69
2024/01/07 07:00:39;;;;;;;4.15;1.50;;;0.40;99.90;;;;;;5073972;28;20048;-69
2024/01/07 07:03:05;;;;;;;4.63;1.65;;;0.40;99.90;;;;;;5074199;28;20060;-69
2024/01/07 07:05:31;;;;;;;6.15;1.75;;;0.40;99.90;;;;;;5074222;28;20055;-69
2024/01/07 07:07:57;;;;;;;3.17;1.63;;;0.40;99.90;;;;;;5072489;28;20049;-68
2024/01/07 07:10:23;;;;;;;5.10;2.00;;;0.40;99.90;;;;;;5072733;28;20492;-69
2024/01/07 07:12:51;;;;;;;3.95;1.67;;;0.30;99.90;;;;;;5073755;28;20048;-68
2024/01/07 07:15:20;;;;;;;5.43;1.88;;;0.40;99.90;;;;;;5073002;28;20049;-69
2024/01/07 07:17:46;;;;;;;3.33;1.58;;;0.30;99.90;;;;;;5073401;28;20037;-69
2024/01/07 07:20:14;;;;;;;4.55;1.88;;;0.30;99.90;;;;;;5073424;28;20072;-69
2024/01/07 07:22:39;;;;;;;3.53;1.65;;;0.70;99.90;;;;;;5070753;28;20080;-69
2024/01/07 07:25:06;;;;;;;4.00;1.42;;;0.30;99.90;;;;;;5072436;28;20048;-69
2024/01/07 07:27:31;;;;;;;4.75;1.70;;;0.30;99.90;;;;;;5071759;28;20044;-69
2024/01/07 07:29:57;;;;;;;3.33;1.77;;;0.20;99.90;;;;;;5073212;28;20106;-69
2024/01/07 07:32:22;;;;;;;3.17;1.77;;;0.30;99.90;;;;;;5072643;28;20075;-69
2024/01/07 07:34:48;;;;;;;3.30;1.80;;;0.30;99.90;;;;;;5073159;28;20040;-70
2024/01/07 07:37:14;;;;;;;3.35;2.00;;;0.70;99.90;;;;;;5073051;28;20534;-71
2024/01/07 07:39:39;;;;;;;;;;;0.30;99.90;;;;;;5072756;28;20098;-71
2024/01/07 07:42:05;;;;;;;3.88;1.80;;;0.30;99.90;;;;;;5071985;28;20463;-72
2024/01/07 07:44:31;;;;;;;4.93;1.80;;;0.30;99.90;;;;;;5067653;28;20127;-69
2024/01/07 07:46:56;;;;;;;3.33;1.60;;;0.30;99.90;;;;;;5069827;28;20490;-68
2024/01/07 07:49:22;;;;;;;3.83;1.98;;;0.20;99.90;;;;;;5070895;28;20136;-67
2024/01/07 07:51:48;;;;;;;4.25;2.00;;;0.20;99.90;;;;;;5071718;28;20037;-67
2024/01/07 07:54:14;;;;;;;5.60;2.00;;;0.20;99.90;;;;;;5072592;28;20105;-69
2024/01/07 07:56:39;;;;;;;5.35;2.25;;;0.10;99.90;;;;;;5071092;28;20052;-68
2024/01/07 07:59:05;;;;;;;4.53;2.00;;;0.10;99.90;;;;;;5065948;28;20056;-67
2024/01/07 08:01:30;;;;;;;4.10;2.00;;;0.10;99.90;;;;;;5072162;28;20396;-68
2024/01/07 08:03:56;;;;;;;7.43;2.28;;;0.10;99.90;;;;;;5070394;28;20044;-69
2024/01/07 08:06:22;;;;;;;5.50;2.00;;;0.00;99.90;;;;;;5070340;28;20037;-69
2024/01/07 08:08:47;;;;;;;4.93;1.77;;;-0.10;99.90;;;;;;5070658;28;20048;-68
2024/01/07 08:11:13;;;;;;;4.25;2.08;;;-0.10;99.90;;;;;;5071107;28;20082;-70
2024/01/07 08:13:39;;;;;;;3.88;2.00;;;-0.10;99.90;;;;;;5070445;28;20036;-70
2024/01/07 08:16:10;;;;;;;3.65;2.25;;;-0.20;99.90;;;;;;5070841;28;20052;-71
2024/01/07 08:18:35;;;;;;;3.85;1.90;;;-0.30;99.90;;;;;;5070639;28;20056;-71
2024/01/07 08:21:01;;;;;;;4.22;2.03;;;-0.30;99.90;;;;;;5069986;28;20052;-71
2024/01/07 08:23:27;;;;;;;3.65;1.92;;;-0.30;99.90;;;;;;5072860;28;20045;-70
2024/01/07 08:25:53;;;;;;;3.58;2.10;;;-0.30;99.90;;;;;;5071906;28;20119;-69
2024/01/07 08:28:20;;;;;;;5.10;2.00;;;-0.30;99.90;;;;;;5071027;28;20132;-70
2024/01/07 08:30:46;;;;;;;3.85;1.95;;;-0.30;99.90;;;;;;5072758;28;20496;-70
2024/01/07 08:33:12;;;;;;;5.03;2.03;;;-0.30;99.90;;;;;;5070504;28;20045;-69
2024/01/07 08:35:38;;;;;;;4.68;2.22;;;-0.30;99.90;;;;;;5072632;28;20051;-70
2024/01/07 08:38:04;;;;;;;5.22;2.38;;;-0.40;99.90;;;;;;5070558;28;20052;-69
2024/01/07 08:40:30;;;;;;;5.25;2.22;;;-0.30;99.90;;;;;;5071944;28;20040;-70
2024/01/07 08:42:56;;;;;;;4.47;2.38;;;-0.10;99.90;;;;;;5071355;28;20079;-73
2024/01/07 08:45:22;;;;;;;4.53;2.17;;;0.30;99.90;;;;;;5072119;28;20072;-68
2024/01/07 08:47:48;;;;;;;5.05;2.15;;;0.50;99.90;;;;;;5071624;28;20077;-72
2024/01/07 08:50:13;;;;;;;5.35;2.60;;;0.80;99.90;;;;;;5070501;28;20139;-73
2024/01/07 08:52:39;;;;;;;;;;;0.80;99.90;;;;;;5071483;28;20403;-77
2024/01/07 08:55:06;;;;;;;3.50;2.15;;;0.80;99.90;;;;;;5069718;28;19954;-72
2024/01/07 08:57:32;;;;;;;3.65;2.13;;;0.80;99.90;;;;;;5071225;28;20053;-72
2024/01/07 08:59:58;;;;;;;4.95;3.08;;;0.60;99.90;;;;;;5069679;28;20052;-71
2024/01/07 09:02:25;;;;;;;4.00;2.53;;;0.50;99.90;;;;;;5069641;28;20399;-70
2024/01/07 09:04:51;;;;;;;5.15;2.20;;;0.50;99.90;;;;;;5069117;28;20052;-70
2024/01/07 09:07:16;;;;;;;7.53;3.33;;;0.50;99.90;;;;;;5069193;28;20041;-70
2024/01/07 09:09:42;;;;;;;6.15;3.10;;;0.40;99.90;;;;;;5071142;28;20044;-77
2024/01/07 09:12:08;;;;;;;;;;;0.40;99.90;;;;;;5070008;28;20037;-71
2024/01/07 09:14:33;;;;;;;8.13;2.50;;;0.40;99.90;;;;;;5071431;28;19920;-72
2024/01/07 09:16:59;;;;;;;;;;;0.40;99.90;;;;;;5085961;28;20041;-71
2024/01/07 09:19:24;;;;;;;4.10;2.42;;;0.40;99.90;;;;;;5084781;28;20324;-76
2024/01/07 09:21:50;;;;;;;5.88;2.78;;;0.40;99.90;;;;;;5069234;28;20048;-72
2024/01/07 09:24:16;;;;;;;4.93;2.55;;;0.40;99.90;;;;;;5070776;28;20084;-71
2024/01/07 09:26:41;;;;;;;;;;;0.40;99.90;;;;;;5071637;28;20033;-70
2024/01/07 09:29:07;;;;;;;6.25;2.75;;;0.50;99.90;;;;;;5070760;28;20358;-70
2024/01/07 09:31:33;;;;;;;5.38;2.50;;;0.40;99.90;;;;;;5070579;28;20056;-71
2024/01/07 09:33:58;;;;;;;;;;;0.40;99.90;;;;;;5071226;28;20372;-70
2024/01/07 09:36:24;;;;;;;5.68;2.60;;;0.40;99.90;;;;;;5070458;28;19926;-70
2024/01/07 09:38:49;;;;;;;6.90;2.80;;;0.40;99.90;;;;;;5070442;28;20422;-70
2024/01/07 09:41:15;;;;;;;5.00;2.30;;;0.40;99.90;;;;;;5069997;28;20530;-70
2024/01/07 09:43:41;;;;;;;3.60;1.95;;;0.50;99.90;;;;;;5071276;28;20089;-71
2024/01/07 09:46:06;;;;;;;5.18;2.28;;;0.40;99.90;;;;;;5071307;28;20049;-71
2024/01/07 09:48:35;;;;;;;5.43;2.38;;;0.50;99.90;;;;;;5070807;28;20041;-71
2024/01/07 09:51:04;;;;;;;4.55;1.83;;;0.40;99.90;;;;;;5069099;28;20072;-71
2024/01/07 09:53:33;;;;;;;3.38;1.90;;;0.40;99.90;;;;;;5059938;28;20040;-70
2024/01/07 09:56:40;;;;;;;3.13;1.90;;;0.50;99.90;;;;;;5071801;28;20060;-71
2024/01/07 09:59:06;;;;;;;2.92;1.70;;;0.50;99.90;;;;;;5070443;28;20555;-73
2024/01/07 10:01:35;;;;;;;4.35;2.22;;;0.50;99.90;;;;;;5069237;28;20086;-69
2024/01/07 10:04:01;;;;;;;5.63;3.10;;;0.60;99.90;;;;;;5070346;28;20547;-69
2024/01/07 10:06:26;;;;;;;4.47;2.55;;;0.60;99.90;;;;;;5071887;28;20036;-69
2024/01/07 10:08:52;;;;;;;4.63;2.17;;;0.60;99.90;;;;;;5069700;28;20036;-70
2024/01/07 10:11:18;;;;;;;4.35;1.98;;;0.60;99.90;;;;;;5070279;28;20063;-70
2024/01/07 10:13:51;;;;;;;5.93;2.50;;;0.70;99.90;;;;;;5074334;28;20090;-70
2024/01/07 10:16:17;;;;;;;3.78;2.05;;;0.70;99.90;;;;;;5073987;28;20041;-71
2024/01/07 10:18:43;;;;;;;4.18;2.40;;;0.80;99.90;;;;;;5074234;28;20040;-71
2024/01/07 10:21:09;;;;;;;4.15;2.10;;;0.80;99.90;;;;;;5073439;28;20052;-70
2024/01/07 10:23:34;;;;;;;4.47;2.20;;;0.80;99.90;;;;;;5074363;28;20043;-70
2024/01/07 10:26:02;;;;;;;4.28;1.98;;;0.80;99.90;;;;;;5071993;28;20079;-71
2024/01/07 10:28:28;;;;;;;5.00;2.10;;;0.80;99.90;;;;;;5073649;28;20119;-70
2024/01/07 10:30:53;;;;;;;3.80;2.15;;;0.90;99.90;;;;;;5074016;28;20132;-71
2024/01/07 10:33:19;;;;;;;;;;;0.90;99.90;;;;;;5072738;28;20430;-85
2024/01/07 10:35:55;;;;;;;4.20;2.30;;;1.00;99.90;;;;;;5073446;28;19990;-75
2024/01/07 10:38:21;;;;;;;5.32;2.20;;;1.10;99.90;;;;;;5072636;28;20123;-76
2024/01/07 10:40:49;;;;;;;3.22;1.92;;;1.10;99.90;;;;;;5073280;28;20468;-69
2024/01/07 10:43:16;;;;;;;5.18;2.20;;;1.30;99.90;;;;;;5073110;28;20036;-69
2024/01/07 10:45:47;;;;;;;4.60;2.42;;;1.40;99.90;;;;;;5072771;28;20090;-69
2024/01/07 10:48:17;;;;;;;5.82;2.30;;;1.40;99.90;;;;;;5074129;28;20036;-73
2024/01/07 10:50:50;;;;;;;3.30;2.15;;;1.60;99.90;;;;;;5074735;28;20056;-73
2024/01/07 10:53:20;;;;;;;4.43;2.50;;;1.60;99.90;;;;;;5073170;28;20043;-76
2024/01/07 10:55:57;;;;;;;4.80;1.95;;;1.70;99.90;;;;;;5072842;28;20127;-71
2024/01/07 10:58:23;;;;;;;5.25;2.45;;;1.70;99.90;;;;;;5072580;28;20086;-70
2024/01/07 11:00:49;;;;;;;6.43;2.70;;;1.70;99.90;;;;;;5099739;28;20053;-72
2024/01/07 11:03:26;;;;;;;4.55;3.10;;;1.60;99.90;;;;;;5062452;28;20059;-72
2024/01/07 11:06:03;;;;;;;6.18;3.33;;;1.50;99.90;;;;;;5072012;28;20044;-75
2024/01/07 11:08:38;;;;;;;5.07;2.80;;;1.50;99.90;;;;;;5070689;28;20196;-76
2024/01/07 11:11:09;;;;;;;5.37;2.63;;;1.50;99.90;;;;;;5070991;28;20132;-77
2024/01/07 11:13:40;;;;;;;4.68;2.28;;;1.70;99.90;;;;;;5071503;28;20037;-76
2024/01/07 11:16:10;;;;;;;3.97;2.35;;;2.00;99.90;;;;;;5072533;28;20049;-78
2024/01/07 11:18:45;;;;;;;3.40;2.20;;;2.80;99.90;;;;;;5074563;28;20083;-76
2024/01/07 11:21:21;;;;;;;6.13;1.95;;;4.10;99.90;;;;;;5071984;28;20060;-76
2024/01/07 11:23:47;;;;;;;4.82;2.50;;;5.00;99.90;;;;;;5071299;28;20056;-76
2024/01/07 11:26:12;;;;;;;5.18;2.83;;;6.30;99.90;;;;;;5073361;28;20441;-77
2024/01/07 11:28:51;;;;;;;6.38;2.85;;;8.00;99.90;;;;;;5066558;28;20098;-74
2024/01/07 11:31:20;;;;;;;5.53;2.83;;;8.00;99.90;;;;;;5073082;28;20123;-78
2024/01/07 11:33:47;;;;;;;6.70;3.03;;;8.60;99.90;;;;;;5072996;28;20048;-78
2024/01/07 11:36:16;;;;;;;3.30;2.25;;;9.30;99.90;;;;;;5072901;28;20149;-76
2024/01/07 11:38:43;;;;;;;4.03;2.30;;;9.30;98.80;;;;;;5079601;28;20041;-75
2024/01/07 11:41:16;;;;;;;3.97;2.20;;;9.90;97.20;;;;;;5069993;28;20048;-80
2024/01/07 11:43:59;;;;;;;5.05;3.00;;;9.20;98.10;;;;;;5070078;28;20399;-84
2024/01/07 11:46:25;;;;;;;6.80;2.20;;;8.70;98.70;;;;;;5069629;28;20040;-79
2024/01/07 11:48:58;;;;;;;5.63;3.13;;;8.90;97.60;;;;;;5067597;28;20581;-75
2024/01/07 11:51:26;;;;;;;4.30;2.38;;;7.50;99.00;;;;;;5103819;28;20044;-75
2024/01/07 11:53:52;;;;;;;4.97;2.75;;;7.40;99.40;;;;;;5103088;28;20127;-74
2024/01/07 11:56:18;;;;;;;6.03;3.28;;;7.30;99.30;;;;;;5103085;28;20051;-76
2024/01/07 11:58:44;;;;;;;5.32;2.10;;;7.20;99.90;;;;;;5069768;28;20080;-75
2024/01/07 12:01:10;;;;;;;6.35;2.20;;;6.70;99.90;;;;;;5072582;28;20446;-71
2024/01/07 12:03:36;;;;;;;3.72;2.20;;;6.60;99.90;;;;;;5069601;28;20140;-71
2024/01/07 12:06:02;;;;;;;4.47;2.28;;;6.50;99.90;;;;;;5067945;28;20036;-71
2024/01/07 12:08:28;;;;;;;4.10;2.22;;;6.50;99.90;;;;;;5071361;28;20040;-71
2024/01/07 12:10:54;;;;;;;5.35;2.30;;;7.30;99.90;;;;;;5069747;28;20048;-79
2024/01/07 12:13:20;;;;;;;5.20;2.40;;;7.50;99.00;;;;;;5069281;28;20044;-71
2024/01/07 12:15:46;;;;;;;4.60;2.13;;;7.90;99.70;;;;;;5071967;28;20040;-71
2024/01/07 12:18:12;;;;;;;3.95;2.00;;;6.60;99.90;;;;;;5069101;28;20036;-73
2024/01/07 12:20:40;;;;;;;6.30;2.60;;;6.30;99.90;;;;;;5070390;28;20057;-71
2024/01/07 12:23:08;;;;;;;4.35;2.20;;;6.40;99.90;;;;;;5070930;28;20039;-71
2024/01/07 12:25:34;;;;;;;5.00;2.90;;;7.10;99.90;;;;;;5070705;28;20391;-72
2024/01/07 12:27:59;;;;;;;3.90;2.30;;;8.10;99.90;;;;;;5071624;28;20055;-71
2024/01/07 12:30:25;;;;;;;;;;;9.10;98.90;;;;;;5070469;28;20037;-73
2024/01/07 12:32:55;;;;;;;5.20;2.40;;;9.50;97.20;;;;;;5102188;28;20320;-80
2024/01/07 12:35:21;;;;;;;5.25;2.47;;;10.30;96.90;;;;;;5068817;28;20552;-79
2024/01/07 12:37:48;;;;;;;4.45;2.55;;;10.40;97.10;;;;;;5071382;28;20127;-74
2024/01/07 12:40:13;;;;;;;5.18;2.80;;;10.80;96.90;;;;;;5100448;28;20044;-75
2024/01/07 12:42:44;;;;;;;5.28;2.97;;;10.50;96.00;;;;;;5070270;28;20648;-76
2024/01/07 12:45:13;;;;;;;4.47;2.60;;;10.20;95.10;;;;;;5069865;28;20519;-81
2024/01/07 12:47:41;;;;;;;6.60;2.33;;;10.40;95.50;;;;;;5102681;28;20040;-75
2024/01/07 12:50:10;;;;;;;6.35;2.92;;;10.80;95.60;;;;;;5071786;28;20084;-77
2024/01/07 12:52:40;;;;;;;6.10;3.20;;;9.60;96.20;;;;;;5071531;28;20380;-82
2024/01/07 12:55:12;;;;;;;4.95;2.50;;;8.80;96.70;;;;;;5066818;28;20052;-81